createdAt,value
2023-10-20T00:00:10.176Z,31.77
2023-10-20T00:02:59.079Z,33.20
2023-10-20T00:05:27.351Z,34.20
2023-10-20T00:07:54.784Z,36.17
2023-10-20T00:10:22.787Z,35.30
2023-10-20T00:12:50.028Z,34.35
2023-10-20T00:15:19.500Z,34.40
2023-10-20T00:17:48.746Z,34.00
2023-10-20T00:20:22.164Z,33.53
2023-10-20T00:22:49.565Z,33.33
2023-10-20T00:25:17.429Z,34.20
2023-10-20T00:27:44.938Z,33.00
2023-10-20T00:30:13.042Z,37.45
2023-10-20T00:32:41.177Z,28.63
2023-10-20T00:35:09.897Z,33.95
2023-10-20T00:37:38.778Z,31.45
2023-10-20T00:40:07.393Z,31.45
2023-10-20T00:42:34.903Z,34.28
2023-10-20T00:45:02.816Z,31.23
2023-10-20T00:47:31.251Z,30.75
2023-10-20T00:50:00.473Z,35.40
2023-10-20T00:52:29.851Z,30.65
2023-10-20T00:55:00.754Z,31.33
2023-10-20T00:57:28.328Z,30.42
2023-10-20T00:59:56.238Z,32.40
2023-10-20T01:02:23.757Z,33.25
2023-10-20T01:04:51.619Z,33.72
2023-10-20T01:07:19.008Z,31.05
2023-10-20T01:09:46.892Z,33.78
2023-10-20T01:12:15.912Z,33.05
2023-10-20T01:14:43.938Z,33.45
2023-10-20T01:17:11.489Z,31.55
2023-10-20T01:19:39.314Z,31.67
2023-10-20T01:22:06.853Z,31.63
2023-10-20T01:24:36.309Z,30.98
2023-10-20T01:27:03.868Z,30.42
2023-10-20T01:29:32.412Z,31.02
2023-10-20T01:31:59.846Z,28.05
2023-10-20T01:34:27.607Z,30.58
2023-10-20T01:36:54.986Z,27.40
2023-10-20T01:39:22.660Z,27.40
2023-10-20T01:41:54.756Z,27.23
2023-10-20T01:46:49.885Z,28.25
2023-10-20T01:49:18.690Z,29.02
2023-10-20T01:51:46.091Z,25.63
2023-10-20T01:54:13.882Z,26.77
2023-10-20T01:56:41.269Z,28.13
2023-10-20T01:59:10.617Z,27.35
2023-10-20T02:01:37.949Z,28.25
2023-10-20T02:04:06.062Z,28.08
2023-10-20T02:06:33.481Z,27.98
2023-10-20T02:09:01.297Z,29.10
2023-10-20T02:11:28.758Z,30.67
2023-10-20T02:13:56.434Z,28.52
2023-10-20T02:16:25.192Z,29.00
2023-10-20T02:18:57.711Z,30.38
2023-10-20T02:21:25.093Z,30.23
2023-10-20T02:23:52.963Z,25.65
2023-10-20T02:26:20.367Z,26.67
2023-10-20T02:28:48.387Z,27.52
2023-10-20T02:31:17.170Z,29.23
2023-10-20T02:33:46.853Z,27.98
2023-10-20T02:36:17.142Z,28.45
2023-10-20T02:38:45.100Z,29.17
2023-10-20T02:41:12.652Z,28.00
2023-10-20T02:43:40.425Z,27.42
2023-10-20T02:46:08.389Z,28.77
2023-10-20T02:48:36.215Z,28.73
2023-10-20T02:51:11.144Z,28.67
2023-10-20T02:53:38.904Z,29.52
2023-10-20T02:56:11.560Z,29.98
2023-10-20T02:58:39.476Z,27.65
2023-10-20T03:01:07.551Z,29.73
2023-10-20T03:03:35.621Z,32.70
2023-10-20T03:06:04.515Z,29.80
2023-10-20T03:08:39.426Z,29.83
2023-10-20T03:11:07.619Z,27.65
2023-10-20T03:13:35.760Z,28.75
2023-10-20T03:16:03.230Z,26.20
2023-10-20T03:18:31.142Z,28.95
2023-10-20T03:21:00.470Z,31.45
2023-10-20T03:23:28.410Z,31.52
2023-10-20T03:25:57.599Z,32.55
2023-10-20T03:28:25.630Z,27.80
2023-10-20T03:30:53.100Z,27.27
2023-10-20T03:33:20.738Z,29.77
2023-10-20T03:35:48.157Z,26.55
2023-10-20T03:38:16.067Z,26.73
2023-10-20T03:40:43.638Z,29.40
2023-10-20T03:43:13.135Z,31.05
2023-10-20T03:45:41.103Z,27.75
2023-10-20T03:48:09.685Z,30.33
2023-10-20T03:50:37.707Z,31.45
2023-10-20T03:53:05.785Z,26.15
2023-10-20T03:55:33.300Z,31.20
2023-10-20T03:58:01.445Z,28.55
2023-10-20T04:00:30.433Z,31.90
2023-10-20T04:02:58.688Z,28.98
2023-10-20T04:05:26.170Z,25.98
2023-10-20T04:07:54.062Z,31.05
2023-10-20T04:10:21.762Z,28.33
2023-10-20T04:12:50.634Z,27.38
2023-10-20T04:15:18.117Z,28.58
2023-10-20T04:17:48.242Z,29.92
2023-10-20T04:20:15.752Z,26.30
2023-10-20T04:22:44.020Z,26.98
2023-10-20T04:25:11.433Z,27.15
2023-10-20T04:27:39.444Z,26.08
2023-10-20T04:30:08.093Z,27.67
2023-10-20T04:32:35.953Z,29.55
2023-10-20T04:35:05.390Z,25.02
2023-10-20T04:37:33.273Z,25.88
2023-10-20T04:40:00.761Z,28.23
2023-10-20T04:42:28.494Z,28.48
2023-10-20T04:44:55.910Z,27.65
2023-10-20T04:47:23.752Z,25.73
2023-10-20T04:49:51.252Z,29.35
2023-10-20T04:52:23.907Z,31.73
2023-10-20T04:54:51.196Z,30.17
2023-10-20T04:57:19.439Z,30.77
2023-10-20T04:59:46.926Z,28.55
2023-10-20T05:02:14.902Z,30.52
2023-10-20T05:04:43.904Z,28.92
2023-10-20T05:07:11.932Z,31.52
2023-10-20T05:09:40.768Z,29.05
2023-10-20T05:12:08.580Z,25.35
2023-10-20T05:14:36.361Z,30.48
2023-10-20T05:17:04.372Z,27.25
2023-10-20T05:19:31.835Z,27.42
2023-10-20T05:21:59.806Z,27.75
2023-10-20T05:24:27.186Z,26.23
2023-10-20T05:26:56.413Z,24.65
2023-10-20T05:29:25.014Z,28.90
2023-10-20T05:31:57.321Z,28.05
2023-10-20T05:34:24.875Z,26.58
2023-10-20T05:36:52.685Z,29.00
2023-10-20T05:39:23.175Z,26.48
2023-10-20T05:41:50.994Z,27.50
2023-10-20T05:44:20.026Z,25.17
2023-10-20T05:46:47.736Z,26.98
2023-10-20T05:49:15.040Z,24.85
2023-10-20T05:51:42.850Z,26.20
2023-10-20T05:54:10.192Z,24.60
2023-10-20T05:56:38.035Z,26.88
2023-10-20T05:59:05.562Z,28.20
2023-10-20T06:01:34.843Z,25.50
2023-10-20T06:04:02.491Z,26.25
2023-10-20T06:06:31.511Z,28.92
2023-10-20T06:08:59.030Z,27.48
2023-10-20T06:11:26.775Z,26.77
2023-10-20T06:13:54.286Z,26.00
2023-10-20T06:16:22.010Z,29.50
2023-10-20T06:18:50.808Z,27.50
2023-10-20T06:21:18.699Z,25.83
2023-10-20T06:23:46.248Z,25.85
2023-10-20T06:26:14.257Z,28.17
2023-10-20T06:28:41.806Z,25.23
2023-10-20T06:31:09.866Z,26.90
2023-10-20T06:33:37.377Z,27.20
2023-10-20T06:36:06.686Z,25.55
2023-10-20T06:38:34.057Z,26.77
2023-10-20T06:41:01.854Z,26.27
2023-10-20T06:43:33.263Z,26.92
2023-10-20T06:46:01.631Z,25.80
2023-10-20T06:48:30.334Z,29.70
2023-10-20T06:50:58.425Z,27.50
2023-10-20T06:53:27.621Z,26.83
2023-10-20T06:56:12.957Z,23.23
2023-10-20T06:58:42.399Z,26.45
2023-10-20T07:01:10.292Z,27.02
2023-10-20T07:03:37.855Z,28.17
2023-10-20T07:06:06.142Z,26.65
2023-10-20T07:08:35.159Z,25.38
2023-10-20T07:11:03.286Z,27.33
2023-10-20T07:13:32.135Z,26.50
2023-10-20T07:15:59.987Z,24.92
2023-10-20T07:18:27.811Z,27.05
2023-10-20T07:20:57.761Z,29.40
2023-10-20T07:23:26.646Z,27.15
2023-10-20T07:25:56.246Z,27.98
2023-10-20T07:28:23.596Z,26.75
2023-10-20T07:30:51.436Z,27.58
2023-10-20T07:33:18.947Z,28.60
2023-10-20T07:35:47.192Z,28.35
2023-10-20T07:38:14.635Z,28.42
2023-10-20T07:40:42.593Z,29.13
2023-10-20T07:43:11.787Z,29.35
2023-10-20T07:45:40.333Z,26.80
2023-10-20T07:48:08.369Z,30.35
2023-10-20T07:50:36.449Z,29.63
2023-10-20T07:53:04.078Z,29.55
2023-10-20T07:55:31.939Z,28.02
2023-10-20T07:57:59.404Z,25.15
2023-10-20T08:00:33.268Z,29.52
2023-10-20T08:03:00.732Z,26.60
2023-10-20T08:05:28.888Z,26.80
2023-10-20T08:07:56.848Z,29.15
2023-10-20T08:10:24.591Z,27.73
2023-10-20T08:12:52.057Z,27.05
2023-10-20T08:15:19.995Z,26.65
2023-10-20T08:17:49.067Z,26.42
2023-10-20T08:20:17.190Z,29.35
2023-10-20T08:22:47.255Z,23.77
2023-10-20T08:25:15.346Z,28.15
2023-10-20T08:27:46.150Z,25.23
2023-10-20T08:30:14.789Z,26.65
2023-10-20T08:32:42.362Z,28.48
2023-10-20T08:35:11.685Z,27.85
2023-10-20T08:37:39.273Z,27.88
2023-10-20T08:40:08.120Z,27.23
2023-10-20T08:42:37.871Z,26.25
2023-10-20T08:45:09.168Z,26.95
2023-10-20T08:47:37.026Z,29.77
2023-10-20T08:50:06.536Z,28.58
2023-10-20T08:52:40.136Z,24.55
2023-10-20T08:55:08.880Z,28.75
2023-10-20T08:57:36.292Z,27.05
2023-10-20T09:00:05.018Z,28.00
2023-10-20T09:02:41.280Z,27.95
2023-10-20T09:05:11.477Z,27.73
2023-10-20T09:07:40.387Z,28.05
2023-10-20T09:10:08.614Z,29.38
2023-10-20T09:12:36.282Z,26.50
2023-10-20T09:15:04.713Z,28.55
2023-10-20T09:17:32.184Z,27.75
2023-10-20T09:20:05.630Z,25.40
2023-10-20T09:22:33.152Z,29.00
2023-10-20T09:25:07.359Z,29.10
2023-10-20T09:27:34.723Z,28.50
2023-10-20T09:30:04.298Z,28.95
2023-10-20T09:32:31.794Z,29.30
2023-10-20T09:35:01.138Z,28.05
2023-10-20T09:37:31.021Z,29.48
2023-10-20T09:40:06.096Z,28.80
2023-10-20T09:42:46.412Z,28.98
2023-10-20T09:45:17.036Z,30.13
2023-10-20T09:47:48.259Z,30.27
2023-10-20T09:50:16.873Z,28.50
2023-10-20T09:52:44.388Z,29.52
2023-10-20T09:55:14.160Z,28.50
2023-10-20T09:57:44.090Z,28.10
2023-10-20T10:00:13.252Z,28.30
2023-10-20T10:02:40.958Z,27.65
2023-10-20T10:05:10.392Z,29.85
2023-10-20T10:07:37.896Z,30.13
2023-10-20T10:10:08.416Z,32.70
2023-10-20T10:12:59.502Z,32.75
2023-10-20T10:15:37.750Z,27.98
2023-10-20T10:18:10.307Z,29.98
2023-10-20T10:20:43.116Z,29.35
2023-10-20T10:23:11.647Z,29.30
2023-10-20T10:25:41.550Z,30.15
2023-10-20T10:28:14.956Z,33.13
2023-10-20T10:30:44.012Z,31.65
2023-10-20T10:33:12.836Z,32.95
2023-10-20T10:35:41.254Z,34.30
2023-10-20T10:38:19.245Z,33.72
2023-10-20T10:40:48.112Z,33.30
2023-10-20T10:43:19.072Z,32.60
2023-10-20T10:45:54.102Z,36.88
2023-10-20T10:48:25.456Z,33.40
2023-10-20T10:50:53.625Z,34.33
2023-10-20T10:53:21.240Z,33.13
2023-10-20T10:55:49.036Z,33.13
2023-10-20T10:58:18.191Z,34.15
2023-10-20T11:00:47.002Z,36.33
2023-10-20T11:03:15.484Z,34.10
2023-10-20T11:05:44.221Z,31.90
2023-10-20T11:08:15.986Z,32.25
2023-10-20T11:10:46.461Z,32.20
2023-10-20T11:13:14.529Z,31.95
2023-10-20T11:15:44.302Z,28.02
2023-10-20T11:18:12.268Z,31.25
2023-10-20T11:20:41.527Z,32.75
2023-10-20T11:23:11.183Z,32.95
2023-10-20T11:25:39.874Z,34.80
2023-10-20T11:28:08.062Z,27.83
2023-10-20T11:30:37.384Z,29.73
2023-10-20T11:33:06.754Z,31.38
2023-10-20T11:35:34.907Z,28.58
2023-10-20T11:38:02.470Z,34.92
2023-10-20T11:40:30.689Z,33.35
2023-10-20T11:43:02.312Z,34.25
2023-10-20T11:45:30.689Z,35.03
2023-10-20T11:47:58.262Z,33.83
2023-10-20T11:50:31.956Z,32.97
2023-10-20T11:53:02.660Z,31.13
2023-10-20T11:55:32.433Z,32.20
2023-10-20T11:58:01.483Z,32.95
2023-10-20T12:00:30.065Z,34.90
2023-10-20T12:02:57.780Z,30.30
2023-10-20T12:05:27.354Z,32.75
2023-10-20T12:07:54.866Z,30.40
2023-10-20T12:10:25.279Z,32.28
2023-10-20T12:12:53.860Z,33.53
2023-10-20T12:15:25.143Z,34.30
2023-10-20T12:18:16.734Z,32.58
2023-10-20T12:20:45.989Z,29.75
2023-10-20T12:23:15.958Z,33.65
2023-10-20T12:25:43.810Z,31.85
2023-10-20T12:28:14.536Z,33.55
2023-10-20T12:30:42.562Z,32.80
2023-10-20T12:33:10.298Z,31.55
2023-10-20T12:35:38.125Z,34.65
2023-10-20T12:38:10.951Z,33.30
2023-10-20T12:40:38.997Z,33.13
2023-10-20T12:43:08.380Z,32.60
2023-10-20T12:45:37.939Z,33.47
2023-10-20T12:48:06.055Z,34.33
2023-10-20T12:50:34.382Z,34.28
2023-10-20T12:53:01.881Z,34.78
2023-10-20T12:55:35.106Z,31.80
2023-10-20T12:58:03.780Z,32.17
2023-10-20T13:00:31.736Z,33.50
2023-10-20T13:02:59.254Z,34.47
2023-10-20T13:05:27.216Z,32.50
2023-10-20T13:07:54.755Z,31.38
2023-10-20T13:10:22.728Z,34.88
2023-10-20T13:12:51.615Z,33.65
2023-10-20T13:15:19.621Z,32.85
2023-10-20T13:17:47.165Z,28.80
2023-10-20T13:20:15.157Z,30.73
2023-10-20T13:22:42.637Z,32.28
2023-10-20T13:25:13.208Z,28.85
2023-10-20T13:27:42.462Z,32.58
2023-10-20T13:30:12.504Z,30.60
2023-10-20T13:32:40.018Z,32.88
2023-10-20T13:35:08.644Z,28.52
2023-10-20T13:37:36.344Z,30.38
2023-10-20T13:40:05.098Z,33.38
2023-10-20T13:42:32.613Z,33.60
2023-10-20T13:45:00.642Z,33.97
2023-10-20T13:47:29.564Z,31.60
2023-10-20T13:49:57.374Z,33.10
2023-10-20T13:52:24.919Z,34.92
2023-10-20T13:54:52.857Z,36.85
2023-10-20T13:57:20.257Z,35.08
2023-10-20T13:59:48.021Z,33.53
2023-10-20T14:02:15.463Z,30.63
2023-10-20T14:04:44.793Z,35.10
2023-10-20T14:07:12.161Z,34.28
2023-10-20T14:09:40.122Z,38.05
2023-10-20T14:12:07.783Z,34.55
2023-10-20T14:14:35.741Z,32.47
2023-10-20T14:17:05.085Z,34.28
2023-10-20T14:19:33.189Z,36.15
2023-10-20T14:22:05.901Z,36.80
2023-10-20T14:24:33.882Z,36.50
2023-10-20T14:27:01.371Z,36.17
2023-10-20T14:29:29.162Z,38.08
2023-10-20T14:31:56.731Z,34.30
2023-10-20T14:34:24.666Z,37.70
2023-10-20T14:36:52.032Z,38.70
2023-10-20T14:39:21.210Z,37.60
2023-10-20T14:41:48.718Z,37.03
2023-10-20T14:44:16.745Z,34.83
2023-10-20T14:46:44.178Z,38.25
2023-10-20T14:49:11.889Z,35.78
2023-10-20T14:51:39.449Z,36.10
2023-10-20T14:54:07.251Z,35.45
2023-10-20T14:56:36.271Z,35.85
2023-10-20T14:59:04.204Z,35.67
2023-10-20T15:01:31.844Z,33.90
2023-10-20T15:04:07.607Z,33.38
2023-10-20T15:06:45.206Z,33.72
2023-10-20T15:09:13.153Z,36.70
2023-10-20T15:11:41.995Z,36.45
2023-10-20T15:14:09.773Z,36.95
2023-10-20T15:16:37.190Z,36.63
2023-10-20T15:19:05.344Z,35.65
2023-10-20T15:21:32.804Z,35.92
2023-10-20T15:24:00.617Z,34.67
2023-10-20T15:26:28.206Z,37.65
2023-10-20T15:28:57.389Z,38.38
2023-10-20T15:31:25.032Z,36.75
2023-10-20T15:33:53.059Z,34.80
2023-10-20T15:36:20.521Z,36.90
2023-10-20T15:38:50.366Z,34.72
2023-10-20T15:41:18.059Z,38.08
2023-10-20T15:43:46.111Z,36.63
2023-10-20T15:46:25.007Z,34.53
2023-10-20T15:48:53.536Z,38.00
2023-10-20T15:51:22.161Z,37.33
2023-10-20T15:53:50.551Z,37.08
2023-10-20T15:56:23.227Z,33.58
2023-10-20T15:58:54.660Z,40.70
2023-10-20T16:01:25.927Z,35.95
2023-10-20T16:03:54.192Z,40.05
2023-10-20T16:06:27.646Z,38.83
2023-10-20T16:08:59.102Z,35.88
2023-10-20T16:11:27.272Z,40.45
2023-10-20T16:13:55.754Z,38.42
2023-10-20T16:16:27.719Z,38.17
2023-10-20T16:18:58.703Z,41.65
2023-10-20T16:21:26.547Z,41.30
2023-10-20T16:23:55.855Z,36.92
2023-10-20T16:26:23.545Z,35.60
2023-10-20T16:28:52.675Z,39.45
2023-10-20T16:31:20.222Z,34.58
2023-10-20T16:33:52.544Z,37.22
2023-10-20T16:36:23.498Z,34.88
2023-10-20T16:39:00.202Z,35.97
2023-10-20T16:41:43.312Z,34.95
2023-10-20T16:46:52.872Z,32.88
2023-10-20T16:49:36.146Z,35.40
2023-10-20T16:52:07.495Z,35.30
2023-10-20T16:57:18.583Z,31.63
2023-10-20T16:59:50.799Z,33.45
2023-10-20T17:02:18.219Z,34.65
2023-10-20T17:04:47.350Z,35.13
2023-10-20T17:07:14.831Z,35.28
2023-10-20T17:10:00.827Z,36.67
2023-10-20T17:12:38.334Z,36.40
2023-10-20T17:15:17.356Z,36.15
2023-10-20T17:17:46.959Z,34.80
2023-10-20T17:20:24.508Z,34.58
2023-10-20T17:22:52.712Z,31.75
2023-10-20T17:25:24.715Z,35.47
2023-10-20T17:27:56.370Z,30.42
2023-10-20T17:30:27.280Z,34.00
2023-10-20T17:32:54.802Z,32.95
2023-10-20T17:35:34.333Z,32.17
2023-10-20T17:38:02.165Z,31.88
2023-10-20T17:40:29.962Z,32.25
2023-10-20T17:42:57.627Z,35.90
2023-10-20T17:45:25.613Z,33.33
2023-10-20T17:47:53.774Z,33.25
2023-10-20T17:50:23.271Z,34.53
2023-10-20T17:52:51.006Z,31.55
2023-10-20T17:55:18.961Z,32.17
2023-10-20T17:57:46.850Z,30.92
2023-10-20T18:00:16.176Z,31.35
2023-10-20T18:02:43.845Z,28.67
2023-10-20T18:05:11.961Z,31.15
2023-10-20T18:07:42.965Z,32.03
2023-10-20T18:10:11.088Z,34.20
2023-10-20T18:12:38.702Z,33.85
2023-10-20T18:15:08.803Z,31.45
2023-10-20T18:17:36.311Z,33.00
2023-10-20T18:20:04.956Z,35.05
2023-10-20T18:22:32.398Z,36.13
2023-10-20T18:25:01.741Z,29.95
2023-10-20T18:27:29.192Z,33.85
2023-10-20T18:29:56.986Z,35.58
2023-10-20T18:32:24.460Z,34.10
2023-10-20T18:34:52.190Z,35.17
2023-10-20T18:37:19.733Z,31.92
2023-10-20T18:39:47.738Z,35.97
2023-10-20T18:42:19.477Z,35.67
2023-10-20T18:44:47.373Z,31.67
2023-10-20T18:47:15.179Z,34.45
2023-10-20T18:49:46.021Z,34.13
2023-10-20T18:52:14.220Z,33.28
2023-10-20T18:54:42.597Z,33.22
2023-10-20T18:57:11.452Z,33.63
2023-10-20T18:59:44.965Z,32.97
2023-10-20T19:02:12.471Z,32.03
2023-10-20T19:04:40.800Z,33.70
2023-10-20T19:07:08.238Z,34.83
2023-10-20T19:09:45.312Z,37.92
2023-10-20T19:12:13.002Z,35.75
2023-10-20T19:14:42.829Z,33.40
2023-10-20T19:17:10.493Z,34.00
2023-10-20T19:19:39.668Z,32.38
2023-10-20T19:22:08.417Z,35.67
2023-10-20T19:24:36.276Z,36.03
2023-10-20T19:27:04.588Z,35.37
2023-10-20T19:29:32.600Z,35.03
2023-10-20T19:32:01.651Z,35.50
2023-10-20T19:34:29.569Z,35.20
2023-10-20T19:36:57.256Z,36.33
2023-10-20T19:39:25.151Z,34.55
2023-10-20T19:41:52.650Z,35.33
2023-10-20T19:44:20.671Z,38.83
2023-10-20T19:46:52.329Z,34.92
2023-10-20T19:49:21.655Z,35.65
2023-10-20T19:51:49.077Z,35.95
2023-10-20T19:54:16.874Z,38.50
2023-10-20T19:56:44.395Z,37.60
2023-10-20T19:59:12.342Z,37.15
2023-10-20T20:01:39.872Z,35.50
2023-10-20T20:04:07.973Z,36.20
2023-10-20T20:06:37.019Z,34.13
2023-10-20T20:09:05.157Z,35.77
2023-10-20T20:11:32.768Z,38.70
2023-10-20T20:16:32.549Z,33.15
2023-10-20T20:19:00.492Z,34.58
2023-10-20T20:21:28.012Z,34.08
2023-10-20T20:23:57.423Z,36.85
2023-10-20T20:26:24.854Z,34.80
2023-10-20T20:28:52.750Z,36.42
2023-10-20T20:31:20.237Z,35.67
2023-10-20T20:33:53.030Z,36.30
2023-10-20T20:36:20.597Z,34.42
2023-10-20T20:38:48.497Z,36.42
2023-10-20T20:41:17.390Z,34.72
2023-10-20T20:43:45.419Z,33.65
2023-10-20T20:46:12.983Z,33.58
2023-10-20T20:48:40.962Z,32.58
2023-10-20T20:51:09.973Z,34.10
2023-10-20T20:53:37.879Z,32.90
2023-10-20T20:56:05.896Z,32.97
2023-10-20T20:58:39.155Z,30.55
2023-10-20T21:01:10.247Z,28.92
2023-10-20T21:06:10.077Z,27.98
2023-10-20T21:08:38.076Z,27.63
2023-10-20T21:11:07.240Z,26.08
2023-10-20T21:13:38.004Z,28.00
2023-10-20T21:16:06.454Z,25.50
2023-10-20T21:18:35.456Z,26.25
2023-10-20T21:21:08.494Z,25.95
2023-10-20T21:23:36.576Z,26.05
2023-10-20T21:26:04.427Z,24.33
2023-10-20T21:28:32.513Z,24.58
2023-10-20T21:31:03.872Z,25.20
2023-10-20T21:33:34.935Z,24.65
2023-10-20T21:36:05.702Z,26.35
2023-10-20T21:38:33.659Z,26.73
2023-10-20T21:41:01.225Z,24.20
2023-10-20T21:43:29.223Z,25.65
2023-10-20T21:45:57.457Z,25.85
2023-10-20T21:48:27.741Z,24.90
2023-10-20T21:50:56.176Z,25.10
2023-10-20T21:53:24.276Z,25.85
2023-10-20T21:55:59.936Z,26.98
2023-10-20T21:58:27.920Z,27.95
2023-10-20T22:00:55.478Z,27.48
2023-10-20T22:03:24.050Z,26.15
2023-10-20T22:05:53.064Z,27.48
2023-10-20T22:08:21.012Z,28.42
2023-10-20T22:10:48.494Z,26.75
2023-10-20T22:13:16.542Z,27.02
2023-10-20T22:15:43.921Z,27.35
2023-10-20T22:18:11.824Z,26.10
2023-10-20T22:20:40.034Z,28.08
2023-10-20T22:23:12.993Z,25.73
2023-10-20T22:25:40.513Z,25.85
2023-10-20T22:28:08.328Z,24.48
2023-10-20T22:30:35.690Z,25.02
2023-10-20T22:33:04.037Z,26.17
2023-10-20T22:35:31.609Z,21.67
2023-10-20T22:37:59.541Z,24.38
2023-10-20T22:40:28.589Z,23.60
2023-10-20T22:42:56.355Z,23.23
2023-10-20T22:45:23.626Z,23.92
2023-10-20T22:47:51.554Z,22.02
2023-10-20T22:50:19.441Z,20.17
2023-10-20T22:52:47.511Z,18.05
2023-10-20T22:55:15.111Z,17.73
2023-10-20T22:57:47.836Z,19.25
2023-10-20T23:00:16.770Z,16.38
2023-10-20T23:02:44.649Z,19.27
2023-10-20T23:05:12.254Z,16.40
2023-10-20T23:07:40.260Z,16.80
2023-10-20T23:10:08.130Z,16.63
2023-10-20T23:12:36.101Z,17.23
2023-10-20T23:15:05.786Z,16.80
2023-10-20T23:17:33.707Z,17.67
2023-10-20T23:20:01.158Z,18.40
2023-10-20T23:22:29.063Z,15.27
2023-10-20T23:24:56.441Z,17.17
2023-10-20T23:27:24.204Z,16.20
2023-10-20T23:29:51.655Z,15.10
2023-10-20T23:32:20.776Z,16.52
2023-10-20T23:34:48.129Z,15.82
2023-10-20T23:37:15.870Z,14.77
2023-10-20T23:39:43.308Z,15.07
2023-10-20T23:42:11.246Z,14.02
2023-10-20T23:44:38.743Z,14.45
2023-10-20T23:47:06.740Z,12.95
2023-10-20T23:49:35.752Z,13.68
2023-10-20T23:52:03.908Z,13.63
2023-10-20T23:54:31.297Z,13.80
2023-10-20T23:56:59.108Z,14.50
2023-10-20T23:59:26.605Z,13.18
